createdAt,value
2023-03-10T00:00:20.166Z,99496.25
2023-03-10T00:03:08.448Z,99507.75
2023-03-10T00:05:56.333Z,99511.63
2023-03-10T00:08:45.546Z,99516.00
2023-03-10T00:11:33.293Z,99501.38
2023-03-10T00:14:20.915Z,99472.72
2023-03-10T00:17:08.735Z,99507.97
2023-03-10T00:19:56.373Z,99493.66
2023-03-10T00:22:44.159Z,99490.84
2023-03-10T00:25:31.818Z,99477.63
2023-03-10T00:28:19.429Z,99496.34
2023-03-10T00:31:14.404Z,99490.78
2023-03-10T00:34:02.391Z,99482.94
2023-03-10T00:36:50.041Z,99433.00
2023-03-10T00:39:37.658Z,99469.63
2023-03-10T00:42:25.371Z,99457.22
2023-03-10T00:45:13.093Z,99463.91
2023-03-10T00:48:00.744Z,99461.28
2023-03-10T00:50:48.782Z,99453.16
2023-03-10T00:53:39.619Z,99426.78
2023-03-10T00:56:28.387Z,99425.53
2023-03-10T00:59:15.988Z,99440.13
2023-03-10T01:02:03.917Z,99433.31
2023-03-10T01:04:51.895Z,99434.09
2023-03-10T01:07:39.449Z,99441.22
2023-03-10T01:10:27.197Z,99456.97
2023-03-10T01:13:17.392Z,99463.13
2023-03-10T01:16:05.456Z,99457.16
2023-03-10T01:18:53.475Z,99446.34
2023-03-10T01:21:42.730Z,99451.13
2023-03-10T01:24:30.570Z,99451.59
2023-03-10T01:27:18.273Z,99444.44
2023-03-10T01:30:07.000Z,99446.72
2023-03-10T01:32:54.729Z,99442.66
2023-03-10T01:35:43.147Z,99448.94
2023-03-10T01:38:31.972Z,99443.00
2023-03-10T01:41:22.032Z,99426.59
2023-03-10T01:44:17.749Z,99416.88
2023-03-10T01:47:05.606Z,99423.28
2023-03-10T01:49:54.684Z,99420.69
2023-03-10T01:52:47.762Z,99430.56
2023-03-10T01:55:40.436Z,99418.91
2023-03-10T01:58:38.927Z,99426.84
2023-03-10T02:01:26.705Z,99431.47
2023-03-10T02:04:25.207Z,99436.13
2023-03-10T02:07:13.786Z,99441.84
2023-03-10T02:10:03.504Z,99438.16
2023-03-10T02:12:51.115Z,99463.22
2023-03-10T02:15:40.100Z,99460.28
2023-03-10T02:18:28.924Z,99442.63
2023-03-10T02:21:21.079Z,99448.75
2023-03-10T02:24:29.981Z,99464.31
2023-03-10T02:27:31.596Z,99429.75
2023-03-10T02:30:27.847Z,99448.38
2023-03-10T02:33:20.319Z,99433.47
2023-03-10T02:36:20.643Z,99422.63
2023-03-10T02:39:08.639Z,99417.66
2023-03-10T02:41:56.396Z,99426.97
2023-03-10T02:44:44.946Z,99432.03
2023-03-10T02:47:33.255Z,99413.41
2023-03-10T02:50:23.801Z,99415.81
2023-03-10T02:53:19.405Z,99393.50
2023-03-10T02:56:09.535Z,99399.44
2023-03-10T02:58:59.906Z,99375.53
2023-03-10T03:01:47.764Z,99400.41
2023-03-10T03:04:37.583Z,99408.13
2023-03-10T03:07:25.574Z,99371.38
2023-03-10T03:10:13.540Z,99407.88
2023-03-10T03:13:01.755Z,99399.88
2023-03-10T03:15:50.403Z,99382.03
2023-03-10T03:18:38.716Z,99406.69
2023-03-10T03:21:27.734Z,99423.97
2023-03-10T03:24:21.437Z,99414.78
2023-03-10T03:27:09.641Z,99408.31
2023-03-10T03:30:01.474Z,99411.16
2023-03-10T03:32:49.942Z,99381.88
2023-03-10T03:35:37.974Z,99412.53
2023-03-10T03:38:27.042Z,99379.31
2023-03-10T03:41:14.784Z,99394.38
2023-03-10T03:44:03.784Z,99398.03
2023-03-10T03:46:53.746Z,99401.53
2023-03-10T03:49:42.470Z,99403.44
2023-03-10T03:52:33.070Z,99393.75
2023-03-10T03:55:21.942Z,99396.53
2023-03-10T03:58:11.859Z,99399.97
2023-03-10T04:00:59.635Z,99387.94
2023-03-10T04:03:50.921Z,99403.94
2023-03-10T04:06:38.998Z,99375.19
2023-03-10T04:09:29.523Z,99389.22
2023-03-10T04:12:17.243Z,99389.97
2023-03-10T04:15:08.600Z,99361.81
2023-03-10T04:17:58.136Z,99373.50
2023-03-10T04:20:46.210Z,99395.44
2023-03-10T04:23:33.896Z,99363.88
2023-03-10T04:26:22.216Z,99379.91
2023-03-10T04:29:10.926Z,99377.16
2023-03-10T04:32:05.481Z,99362.72
2023-03-10T04:34:58.357Z,99379.41
2023-03-10T04:37:46.124Z,99382.56
2023-03-10T04:40:35.215Z,99386.31
2023-03-10T04:43:22.866Z,99345.56
2023-03-10T04:46:11.735Z,99373.03
2023-03-10T04:49:00.105Z,99339.06
2023-03-10T04:51:52.040Z,99379.34
2023-03-10T04:54:39.764Z,99373.41
2023-03-10T04:57:28.161Z,99376.28
2023-03-10T05:00:16.393Z,99383.97
2023-03-10T05:03:04.517Z,99370.69
2023-03-10T05:05:52.526Z,99378.72
2023-03-10T05:08:40.315Z,99288.84
2023-03-10T05:11:30.097Z,99380.31
2023-03-10T05:14:21.711Z,99356.56
2023-03-10T05:17:09.830Z,99379.31
2023-03-10T05:20:00.759Z,99348.94
2023-03-10T05:22:49.048Z,99365.81
2023-03-10T05:25:36.752Z,99356.13
2023-03-10T05:28:24.792Z,99357.38
2023-03-10T05:31:16.254Z,99357.63
2023-03-10T05:34:06.730Z,99359.31
2023-03-10T05:36:54.628Z,99361.47
2023-03-10T05:39:44.040Z,99354.31
2023-03-10T05:42:37.479Z,99355.59
2023-03-10T05:45:25.418Z,99364.53
2023-03-10T05:48:13.715Z,99346.09
2023-03-10T05:51:07.654Z,99352.56
2023-03-10T05:53:55.493Z,99285.47
2023-03-10T05:56:47.409Z,99332.47
2023-03-10T05:59:35.573Z,99342.91
2023-03-10T06:02:24.714Z,99333.22
2023-03-10T06:05:13.892Z,99330.56
2023-03-10T06:08:01.581Z,99311.63
2023-03-10T06:10:49.560Z,99329.28
2023-03-10T06:13:37.491Z,99322.25
2023-03-10T06:16:25.778Z,99326.72
2023-03-10T06:19:13.551Z,99287.53
2023-03-10T06:22:01.274Z,99316.66
2023-03-10T06:24:48.878Z,99326.28
2023-03-10T06:27:36.527Z,99327.28
2023-03-10T06:30:24.452Z,99327.31
2023-03-10T06:33:12.150Z,99319.50
2023-03-10T06:36:00.263Z,99327.94
2023-03-10T06:38:48.413Z,99330.00
2023-03-10T06:41:37.349Z,99340.41
2023-03-10T06:44:25.074Z,99332.94
2023-03-10T06:47:12.664Z,99339.41
2023-03-10T06:50:01.304Z,99351.66
2023-03-10T06:52:49.124Z,99337.38
2023-03-10T06:55:38.069Z,99342.31
2023-03-10T06:58:25.809Z,99334.13
2023-03-10T07:01:24.946Z,99321.59
2023-03-10T07:04:13.098Z,99320.53
2023-03-10T07:07:00.804Z,99297.63
2023-03-10T07:09:48.459Z,99285.41
2023-03-10T07:12:36.125Z,99291.88
2023-03-10T07:15:23.841Z,99260.66
2023-03-10T07:18:12.059Z,99284.13
2023-03-10T07:20:59.746Z,99281.78
2023-03-10T07:23:47.800Z,99262.78
2023-03-10T07:26:35.657Z,99237.38
2023-03-10T07:29:23.296Z,99256.50
2023-03-10T07:32:11.078Z,99247.53
2023-03-10T07:34:58.906Z,99253.91
2023-03-10T07:37:46.742Z,99248.13
2023-03-10T07:40:34.619Z,99247.22
2023-03-10T07:43:22.248Z,99220.19
2023-03-10T07:46:12.739Z,99219.31
2023-03-10T07:49:04.404Z,99220.00
2023-03-10T07:51:52.295Z,99219.84
2023-03-10T07:54:40.044Z,99222.31
2023-03-10T07:57:29.171Z,99235.53
2023-03-10T08:00:17.442Z,99243.72
2023-03-10T08:03:05.263Z,99216.84
2023-03-10T08:05:52.964Z,99232.19
2023-03-10T08:08:40.808Z,99196.44
2023-03-10T08:11:28.529Z,99227.53
2023-03-10T08:14:21.031Z,99213.56
2023-03-10T08:17:08.892Z,99208.03
2023-03-10T08:19:58.273Z,99186.34
2023-03-10T08:22:45.957Z,99172.44
2023-03-10T08:25:33.670Z,99190.94
2023-03-10T08:28:21.439Z,99178.66
2023-03-10T08:31:15.638Z,99186.00
2023-03-10T08:34:03.368Z,99160.50
2023-03-10T08:36:51.042Z,99160.44
2023-03-10T08:39:39.072Z,99179.69
2023-03-10T08:42:27.431Z,99155.94
2023-03-10T08:45:15.146Z,99165.69
2023-03-10T08:48:02.825Z,99153.22
2023-03-10T08:50:50.493Z,99150.81
2023-03-10T08:53:39.175Z,99107.81
2023-03-10T08:56:27.245Z,99140.81
2023-03-10T08:59:15.658Z,99147.00
2023-03-10T09:02:03.560Z,99123.00
2023-03-10T09:04:51.368Z,99108.56
2023-03-10T09:07:42.137Z,99115.59
2023-03-10T09:10:30.341Z,99086.75
2023-03-10T09:13:18.100Z,99098.19
2023-03-10T09:16:06.153Z,99091.19
2023-03-10T09:18:53.803Z,99077.13
2023-03-10T09:21:42.680Z,99089.41
2023-03-10T09:24:30.362Z,99074.59
2023-03-10T09:27:18.133Z,99058.47
2023-03-10T09:30:06.735Z,99058.88
2023-03-10T09:32:55.964Z,99074.56
2023-03-10T09:35:52.305Z,99051.03
2023-03-10T09:38:45.566Z,99076.09
2023-03-10T09:41:38.203Z,99076.13
2023-03-10T09:45:01.231Z,99066.34
2023-03-10T09:48:24.777Z,99064.47
2023-03-10T09:51:25.562Z,99060.44
2023-03-10T09:54:37.137Z,99055.00
2023-03-10T09:57:25.520Z,99056.81
2023-03-10T10:00:22.022Z,99050.47
2023-03-10T10:03:33.337Z,99047.44
2023-03-10T10:06:32.546Z,99040.81
2023-03-10T10:09:26.203Z,99043.03
2023-03-10T10:12:22.517Z,99039.31
2023-03-10T10:15:19.478Z,98998.25
2023-03-10T10:18:20.945Z,99021.16
2023-03-10T10:21:42.254Z,99022.63
2023-03-10T10:24:30.772Z,99022.03
2023-03-10T10:27:21.177Z,99012.03
2023-03-10T10:30:34.114Z,99009.06
2023-03-10T10:33:21.653Z,99004.88
2023-03-10T10:36:18.147Z,99003.38
2023-03-10T10:39:42.217Z,98994.47
2023-03-10T10:42:31.334Z,99001.16
2023-03-10T10:45:40.366Z,98973.03
2023-03-10T10:48:37.013Z,98986.34
2023-03-10T10:51:36.356Z,98980.22
2023-03-10T10:54:38.625Z,98956.25
2023-03-10T10:57:33.742Z,98964.09
2023-03-10T11:00:32.416Z,98966.09
2023-03-10T11:03:20.057Z,98934.25
2023-03-10T11:06:23.099Z,98952.03
2023-03-10T11:09:19.840Z,98955.53
2023-03-10T11:12:38.744Z,98946.94
2023-03-10T11:15:33.409Z,98943.97
2023-03-10T11:18:32.283Z,98939.75
2023-03-10T11:21:28.483Z,98929.22
2023-03-10T11:24:42.550Z,98935.78
2023-03-10T11:27:44.510Z,98915.81
2023-03-10T11:30:35.558Z,98923.47
2023-03-10T11:33:49.095Z,98922.91
2023-03-10T11:37:06.597Z,98919.72
2023-03-10T11:40:09.066Z,98903.13
2023-03-10T11:43:05.630Z,98881.50
2023-03-10T11:45:55.425Z,98891.25
2023-03-10T11:49:04.360Z,98903.06
2023-03-10T11:52:02.603Z,98893.44
2023-03-10T11:55:06.012Z,98887.25
2023-03-10T11:57:58.744Z,98897.69
2023-03-10T12:00:47.916Z,98831.72
2023-03-10T12:04:06.738Z,98904.16
2023-03-10T12:07:01.272Z,98874.75
2023-03-10T12:09:58.389Z,98851.03
2023-03-10T12:12:48.227Z,98891.38
2023-03-10T12:15:39.088Z,98914.72
2023-03-10T12:18:27.819Z,98916.47
2023-03-10T12:21:21.931Z,98930.97
2023-03-10T12:24:43.312Z,98930.56
2023-03-10T12:27:31.014Z,98915.34
2023-03-10T12:30:52.249Z,98914.69
2023-03-10T12:33:42.248Z,98914.16
2023-03-10T12:36:39.763Z,98916.56
2023-03-10T12:39:43.363Z,98932.13
2023-03-10T12:42:34.650Z,98930.53
2023-03-10T12:45:29.571Z,98905.63
2023-03-10T12:48:20.052Z,98920.19
2023-03-10T12:51:17.501Z,98908.66
2023-03-10T12:54:49.778Z,98916.44
2023-03-10T12:57:48.924Z,98886.94
2023-03-10T13:00:58.515Z,98911.75
2023-03-10T13:03:53.620Z,98885.25
2023-03-10T13:06:41.937Z,98878.47
2023-03-10T13:09:42.517Z,98899.44
2023-03-10T13:12:37.793Z,98908.22
2023-03-10T13:15:31.959Z,98898.38
2023-03-10T13:18:23.154Z,98885.25
2023-03-10T13:21:30.071Z,98878.91
2023-03-10T13:24:30.543Z,98852.09
2023-03-10T13:27:20.082Z,98877.41
2023-03-10T13:30:16.135Z,98877.22
2023-03-10T13:33:04.343Z,98894.63
2023-03-10T13:35:52.126Z,98890.72
2023-03-10T13:38:43.417Z,98903.72
2023-03-10T13:41:37.685Z,98896.09
2023-03-10T13:44:38.200Z,98889.06
2023-03-10T13:47:27.157Z,98884.84
2023-03-10T13:50:17.408Z,98888.47
2023-03-10T13:53:05.196Z,98878.19
2023-03-10T13:55:52.877Z,98881.09
2023-03-10T13:58:40.866Z,98874.66
2023-03-10T14:01:31.980Z,98888.78
2023-03-10T14:04:40.071Z,98867.09
2023-03-10T14:07:36.681Z,98874.94
2023-03-10T14:10:24.351Z,98863.47
2023-03-10T14:13:44.272Z,98863.69
2023-03-10T14:16:55.416Z,98859.44
2023-03-10T14:19:43.126Z,98837.25
2023-03-10T14:22:40.579Z,98835.94
2023-03-10T14:25:28.361Z,98839.38
2023-03-10T14:28:34.997Z,98853.56
2023-03-10T14:31:25.228Z,98865.34
2023-03-10T14:34:13.908Z,98863.81
2023-03-10T14:37:01.567Z,98850.00
2023-03-10T14:39:49.597Z,98825.00
2023-03-10T14:42:37.629Z,98829.31
2023-03-10T14:45:34.487Z,98817.31
2023-03-10T14:48:27.870Z,98826.97
2023-03-10T14:51:32.530Z,98789.22
2023-03-10T14:54:24.572Z,98811.16
2023-03-10T14:57:15.665Z,98799.78
2023-03-10T15:00:05.679Z,98799.19
2023-03-10T15:02:53.667Z,98787.09
2023-03-10T15:05:48.808Z,98806.31
2023-03-10T15:08:36.908Z,98794.84
2023-03-10T15:11:36.600Z,98800.06
2023-03-10T15:14:25.614Z,98790.22
2023-03-10T15:17:13.391Z,98792.78
2023-03-10T15:20:01.132Z,98792.34
2023-03-10T15:22:49.562Z,98776.81
2023-03-10T15:25:37.825Z,98772.63
2023-03-10T15:28:25.782Z,98754.56
2023-03-10T15:31:13.582Z,98748.75
2023-03-10T15:34:01.312Z,98734.56
2023-03-10T15:36:49.077Z,98697.41
2023-03-10T15:39:37.397Z,98721.06
2023-03-10T15:42:25.428Z,98677.03
2023-03-10T15:45:13.997Z,98710.13
2023-03-10T15:48:01.748Z,98687.34
2023-03-10T15:50:49.441Z,98696.75
2023-03-10T15:53:37.667Z,98700.75
2023-03-10T15:56:26.232Z,98656.19
2023-03-10T15:59:14.050Z,98698.03
2023-03-10T16:02:01.795Z,98678.00
2023-03-10T16:04:49.858Z,98677.28
2023-03-10T16:07:38.021Z,98683.22
2023-03-10T16:10:25.979Z,98693.88
2023-03-10T16:13:13.872Z,98691.50
2023-03-10T16:16:06.743Z,98658.47
2023-03-10T16:18:54.573Z,98685.34
2023-03-10T16:21:42.550Z,98690.56
2023-03-10T16:24:30.404Z,98656.69
2023-03-10T16:27:18.244Z,98684.63
2023-03-10T16:30:06.792Z,98670.84
2023-03-10T16:32:54.658Z,98661.34
2023-03-10T16:35:42.478Z,98641.75
2023-03-10T16:38:31.163Z,98668.13
2023-03-10T16:41:19.049Z,98664.97
2023-03-10T16:44:07.566Z,98654.69
2023-03-10T16:46:55.438Z,98642.97
2023-03-10T16:49:46.342Z,98653.25
2023-03-10T16:52:46.522Z,98659.91
2023-03-10T16:55:34.271Z,98665.16
2023-03-10T16:58:22.117Z,98659.59
2023-03-10T17:01:10.398Z,98672.69
2023-03-10T17:03:59.164Z,98673.84
2023-03-10T17:06:47.718Z,98662.34
2023-03-10T17:09:36.570Z,98638.78
2023-03-10T17:12:26.623Z,98666.41
2023-03-10T17:15:14.385Z,98656.56
2023-03-10T17:18:02.127Z,98656.09
2023-03-10T17:20:49.931Z,98656.97
2023-03-10T17:23:37.720Z,98668.75
2023-03-10T17:26:25.738Z,98665.63
2023-03-10T17:29:13.848Z,98663.25
2023-03-10T17:32:01.783Z,98635.22
2023-03-10T17:34:52.303Z,98632.47
2023-03-10T17:37:40.931Z,98646.97
2023-03-10T17:40:28.857Z,98646.22
2023-03-10T17:43:32.976Z,98648.59
2023-03-10T17:46:24.699Z,98618.56
2023-03-10T17:49:14.449Z,98638.28
2023-03-10T17:52:02.461Z,98623.28
2023-03-10T17:54:51.117Z,98601.22
2023-03-10T17:57:40.792Z,98627.22
2023-03-10T18:00:28.609Z,98600.84
2023-03-10T18:03:17.392Z,98610.75
2023-03-10T18:06:11.755Z,98630.44
2023-03-10T18:09:01.172Z,98617.38
2023-03-10T18:11:49.451Z,98601.97
2023-03-10T18:14:37.317Z,98595.69
2023-03-10T18:17:25.267Z,98604.72
2023-03-10T18:20:15.211Z,98598.84
2023-03-10T18:23:02.996Z,98596.13
2023-03-10T18:25:51.521Z,98588.28
2023-03-10T18:28:39.579Z,98574.06
2023-03-10T18:31:30.637Z,98546.84
2023-03-10T18:34:19.747Z,98566.63
2023-03-10T18:37:10.113Z,98571.34
2023-03-10T18:39:58.720Z,98537.88
2023-03-10T18:42:46.557Z,98552.41
2023-03-10T18:45:39.677Z,98553.25
2023-03-10T18:48:28.847Z,98565.03
2023-03-10T18:51:20.328Z,98528.41
2023-03-10T18:54:08.138Z,98542.59
2023-03-10T18:56:56.083Z,98547.34
2023-03-10T18:59:43.933Z,98541.03
2023-03-10T19:02:32.072Z,98516.22
2023-03-10T19:05:23.387Z,98543.75
2023-03-10T19:08:12.019Z,98523.66
2023-03-10T19:11:00.392Z,98536.28
2023-03-10T19:13:48.214Z,98511.44
2023-03-10T19:16:37.450Z,98514.19
2023-03-10T19:19:25.339Z,98518.47
2023-03-10T19:22:13.651Z,98514.53
2023-03-10T19:25:04.760Z,98506.25
2023-03-10T19:27:55.323Z,98497.19
2023-03-10T19:30:43.817Z,98490.88
2023-03-10T19:33:31.560Z,98487.22
2023-03-10T19:36:19.423Z,98467.91
2023-03-10T19:39:07.148Z,98464.66
2023-03-10T19:41:54.806Z,98460.75
2023-03-10T19:44:42.797Z,98478.91
2023-03-10T19:47:31.459Z,98489.16
2023-03-10T19:50:30.698Z,98479.38
2023-03-10T19:58:06.718Z,98419.13
2023-03-10T20:00:58.093Z,98450.91
2023-03-10T20:03:46.737Z,98454.47
2023-03-10T20:06:34.539Z,98448.56
2023-03-10T20:09:22.877Z,98457.69
2023-03-10T20:12:10.686Z,98432.44
2023-03-10T20:15:00.470Z,98444.97
2023-03-10T20:17:49.085Z,98439.84
2023-03-10T20:20:41.766Z,98440.22
2023-03-10T20:23:32.349Z,98439.41
2023-03-10T20:26:34.797Z,98352.53
2023-03-10T20:29:23.049Z,98424.72
2023-03-10T20:32:11.041Z,98426.66
2023-03-10T20:34:58.862Z,98421.53
2023-03-10T20:37:46.722Z,98417.13
2023-03-10T20:40:36.916Z,98422.25
2023-03-10T20:43:24.840Z,98412.34
2023-03-10T20:46:14.330Z,98406.06
2023-03-10T20:49:02.125Z,98411.88
2023-03-10T20:51:49.981Z,98408.97
2023-03-10T20:54:37.737Z,98386.16
2023-03-10T20:57:28.829Z,98419.19
2023-03-10T21:00:18.931Z,98418.41
2023-03-10T21:03:06.715Z,98403.44
2023-03-10T21:05:54.660Z,98408.63
2023-03-10T21:08:42.568Z,98406.19
2023-03-10T21:11:30.366Z,98398.25
2023-03-10T21:14:18.167Z,98385.38
2023-03-10T21:17:06.181Z,98379.06
2023-03-10T21:19:55.120Z,98370.38
2023-03-10T21:22:43.251Z,98381.41
2023-03-10T21:25:31.250Z,98363.72
2023-03-10T21:28:19.166Z,98374.38
2023-03-10T21:31:07.394Z,98366.59
2023-03-10T21:33:55.401Z,98372.94
2023-03-10T21:36:43.174Z,98370.59
2023-03-10T21:39:31.039Z,98342.72
2023-03-10T21:42:18.975Z,98367.09
2023-03-10T21:45:08.027Z,98371.38
2023-03-10T21:47:55.868Z,98351.06
2023-03-10T21:50:43.910Z,98383.38
2023-03-10T21:53:32.008Z,98381.44
2023-03-10T21:56:22.269Z,98342.06
2023-03-10T21:59:10.761Z,98366.09
2023-03-10T22:01:58.493Z,98352.00
2023-03-10T22:04:46.318Z,98350.75
2023-03-10T22:07:34.124Z,98354.25
2023-03-10T22:10:21.980Z,98303.88
2023-03-10T22:13:09.839Z,98321.16
2023-03-10T22:15:59.987Z,98331.34
2023-03-10T22:18:49.578Z,98321.84
2023-03-10T22:21:37.351Z,98328.16
2023-03-10T22:24:25.152Z,98335.66
2023-03-10T22:27:13.124Z,98328.16
2023-03-10T22:30:00.865Z,98335.25
2023-03-10T22:32:49.520Z,98337.97
2023-03-10T22:35:38.221Z,98327.31
2023-03-10T22:38:25.944Z,98324.00
2023-03-10T22:41:13.846Z,98318.03
2023-03-10T22:44:01.505Z,98282.66
2023-03-10T22:46:49.310Z,98285.72
2023-03-10T22:49:37.232Z,98309.63
2023-03-10T22:52:24.971Z,98304.00
2023-03-10T22:55:15.333Z,98299.22
2023-03-10T22:58:07.531Z,98289.25
2023-03-10T23:00:55.268Z,98292.03
2023-03-10T23:03:35.755Z,98300.78
2023-03-10T23:06:24.286Z,98299.50
2023-03-10T23:09:12.059Z,98314.75
2023-03-10T23:11:59.798Z,98317.13
2023-03-10T23:14:47.493Z,98306.59
2023-03-10T23:17:35.210Z,98321.09
2023-03-10T23:20:27.915Z,98323.97
2023-03-10T23:23:16.836Z,98322.75
2023-03-10T23:26:04.727Z,98313.75
2023-03-10T23:28:52.401Z,98322.91
2023-03-10T23:31:40.159Z,98317.00
2023-03-10T23:34:27.873Z,98292.69
2023-03-10T23:37:15.588Z,98324.94
2023-03-10T23:40:06.476Z,98296.97
2023-03-10T23:42:56.159Z,98283.94
2023-03-10T23:45:44.113Z,98290.56
2023-03-10T23:48:32.327Z,98310.00
2023-03-10T23:51:20.099Z,98312.41
2023-03-10T23:54:07.843Z,98266.03
2023-03-10T23:56:55.544Z,98271.56
2023-03-10T23:59:44.352Z,98275.41
